Time;durP1;ratioP1;P1;durP2;ratioP2;P2;SDS_P1;SDS_P2;PMS_P1;PMS_P2;Temp;Humidity;BMP_temperature;BMP_pressure;BME280_temperature;BME280_humidity;BME280_pressure;Samples;Min_cycle;Max_cycle;Signal;HPM_P1;HPM_P2
2023/12/22 00:01:54;;;;;;;7.85;1.95;;;6.70;99.90;;;;;;5010430;28;20132;-74
2023/12/22 00:04:19;;;;;;;13.02;2.88;;;6.70;99.90;;;;;;5022158;28;20075;-75
2023/12/22 00:06:48;;;;;;;4.82;1.05;;;6.80;99.90;;;;;;5010467;28;20087;-76
2023/12/22 00:09:13;;;;;;;7.72;1.15;;;6.80;99.90;;;;;;5024375;28;20441;-74
2023/12/22 00:11:39;;;;;;;14.18;1.15;;;6.80;99.90;;;;;;5019997;28;20155;-74
2023/12/22 00:14:04;;;;;;;12.75;2.03;;;6.90;99.90;;;;;;5010279;28;20067;-74
2023/12/22 00:16:30;;;;;;;6.15;1.15;;;6.90;99.90;;;;;;5014873;28;20045;-74
2023/12/22 00:18:56;;;;;;;7.93;1.20;;;6.90;99.90;;;;;;5016962;28;20117;-75
2023/12/22 00:21:21;;;;;;;12.15;1.73;;;7.00;99.90;;;;;;5017640;28;20037;-75
2023/12/22 00:23:47;;;;;;;18.10;1.75;;;7.00;99.90;;;;;;5043282;28;20044;-75
2023/12/22 00:26:12;;;;;;;8.43;1.58;;;7.00;99.90;;;;;;5030320;28;20041;-76
2023/12/22 00:28:38;;;;;;;6.05;0.90;;;7.00;99.90;;;;;;5029572;28;20064;-75
2023/12/22 00:31:03;;;;;;;61.03;1.75;;;7.10;99.90;;;;;;5015409;28;20039;-76
2023/12/22 00:33:29;;;;;;;12.40;1.88;;;7.10;99.90;;;;;;5026997;28;20396;-75
2023/12/22 00:35:55;;;;;;;5.93;0.85;;;7.10;99.90;;;;;;5028099;28;20404;-75
2023/12/22 00:38:20;;;;;;;7.95;1.10;;;7.10;99.90;;;;;;5031076;28;20394;-75
2023/12/22 00:40:46;;;;;;;5.93;1.42;;;7.10;99.90;;;;;;5029045;28;20044;-76
2023/12/22 00:43:11;;;;;;;10.20;0.98;;;7.10;99.90;;;;;;5010758;28;20029;-75
2023/12/22 00:45:37;;;;;;;6.18;0.98;;;7.00;99.90;;;;;;5009471;28;20120;-75
2023/12/22 00:48:03;;;;;;;5.15;1.17;;;6.60;99.90;;;;;;5026886;28;20485;-75
2023/12/22 00:50:29;;;;;;;5.38;0.38;;;6.30;99.90;;;;;;5035434;28;20488;-74
2023/12/22 00:52:54;;;;;;;4.13;0.73;;;6.10;99.90;;;;;;5008879;28;20034;-74
2023/12/22 00:55:20;;;;;;;4.03;0.65;;;6.00;99.90;;;;;;5026823;28;20044;-75
2023/12/22 00:57:45;;;;;;;5.93;0.75;;;5.90;99.90;;;;;;5026424;28;20087;-75
2023/12/22 01:00:12;;;;;;;7.13;1.10;;;5.90;99.90;;;;;;5040509;28;20033;-76
2023/12/22 01:02:38;;;;;;;4.07;0.73;;;5.90;99.90;;;;;;5028335;28;20021;-74
2023/12/22 01:05:04;;;;;;;4.75;1.33;;;6.00;99.90;;;;;;5014188;28;20041;-73
2023/12/22 01:07:30;;;;;;;20.08;2.53;;;6.00;99.90;;;;;;5008808;28;20033;-76
2023/12/22 01:09:56;;;;;;;8.88;1.85;;;6.10;99.90;;;;;;5008892;28;20468;-76
2023/12/22 01:12:21;;;;;;;11.68;1.85;;;6.10;99.90;;;;;;5026293;28;20037;-75
2023/12/22 01:14:49;;;;;;;7.47;0.80;;;6.10;99.90;;;;;;5012453;28;20728;-74
2023/12/22 01:17:14;;;;;;;8.02;0.85;;;6.10;99.90;;;;;;5012200;28;20048;-75
2023/12/22 01:19:40;;;;;;;6.15;0.90;;;6.10;99.90;;;;;;5009122;28;20060;-74
2023/12/22 01:22:05;;;;;;;6.75;2.33;;;6.10;99.90;;;;;;5008141;28;20030;-74
2023/12/22 01:24:31;;;;;;;11.88;1.33;;;6.20;99.90;;;;;;5009025;28;20116;-73
2023/12/22 01:26:56;;;;;;;23.88;2.72;;;6.20;99.90;;;;;;5008648;28;20493;-75
2023/12/22 01:29:22;;;;;;;9.27;1.65;;;6.30;99.90;;;;;;5008416;28;20552;-75
2023/12/22 01:31:48;;;;;;;19.58;1.65;;;6.30;99.90;;;;;;5008309;28;20045;-74
2023/12/22 01:34:13;;;;;;;12.68;1.98;;;6.30;99.90;;;;;;5008183;28;20400;-74
2023/12/22 01:36:39;;;;;;;12.45;1.17;;;6.40;99.90;;;;;;5012168;28;20057;-74
2023/12/22 01:39:04;;;;;;;8.45;1.90;;;6.40;99.90;;;;;;5008242;28;20026;-74
2023/12/22 01:41:30;;;;;;;6.70;1.77;;;6.40;99.90;;;;;;5007986;28;20029;-75
2023/12/22 01:43:55;;;;;;;8.40;0.88;;;6.40;99.90;;;;;;5011966;28;20098;-77
2023/12/22 01:46:21;;;;;;;12.88;1.45;;;6.50;99.90;;;;;;5008013;28;20113;-74
2023/12/22 01:48:47;;;;;;;14.18;2.30;;;6.50;99.90;;;;;;5008251;28;20026;-74
2023/12/22 01:51:12;;;;;;;15.20;1.95;;;6.50;99.90;;;;;;5008220;28;20021;-74
2023/12/22 01:53:38;;;;;;;10.90;2.25;;;6.50;99.90;;;;;;5010816;28;20024;-75
2023/12/22 01:56:05;;;;;;;9.43;1.83;;;6.40;99.90;;;;;;5028130;28;20075;-75
2023/12/22 01:58:34;;;;;;;8.65;1.30;;;6.30;99.90;;;;;;5025161;28;20136;-75
2023/12/22 02:01:01;;;;;;;13.05;2.75;;;6.20;99.90;;;;;;5007569;28;20057;-75
2023/12/22 02:03:27;;;;;;;16.85;1.40;;;6.20;99.90;;;;;;5007731;28;20053;-74
2023/12/22 02:05:53;;;;;;;20.50;2.42;;;6.30;99.90;;;;;;5007835;28;20063;-74
2023/12/22 02:08:21;;;;;;;10.90;1.30;;;6.30;99.90;;;;;;5007072;28;20026;-74
2023/12/22 02:10:47;;;;;;;23.17;3.33;;;6.30;99.90;;;;;;5007821;28;20045;-75
2023/12/22 02:13:13;;;;;;;25.55;4.53;;;6.30;99.90;;;;;;5008341;28;20048;-73
2023/12/22 02:15:39;;;;;;;8.57;1.70;;;6.30;99.90;;;;;;5008046;28;20049;-75
2023/12/22 02:18:23;;;;;;;11.27;1.20;;;6.40;99.90;;;;;;5013280;28;20037;-75
2023/12/22 02:20:49;;;;;;;17.25;2.03;;;6.40;99.90;;;;;;5044878;28;20041;-74
2023/12/22 02:23:14;;;;;;;13.52;2.63;;;6.50;99.90;;;;;;5033998;28;20086;-74
2023/12/22 02:25:40;;;;;;;16.52;3.38;;;6.60;99.90;;;;;;5008536;28;20034;-74
2023/12/22 05:52:45;;;;;;;7.38;1.20;;;8.20;99.90;;;;;;5563519;23;20051;-76
2023/12/22 05:55:11;;;;;;;17.10;3.22;;;8.30;99.90;;;;;;4955221;28;20058;-76
2023/12/22 05:57:36;;;;;;;14.82;1.33;;;8.30;99.90;;;;;;4953437;28;20097;-76
2023/12/22 06:00:07;;;;;;;15.48;2.17;;;8.30;99.90;;;;;;4948749;28;20039;-74
2023/12/22 06:02:33;;;;;;;;;;;8.30;99.90;;;;;;4951218;28;20038;-76
2023/12/22 06:04:58;;;;;;;16.10;2.47;;;8.30;99.90;;;;;;4951640;28;20385;-77
2023/12/22 06:07:24;;;;;;;10.50;1.58;;;8.40;99.90;;;;;;4948903;28;20027;-77
2023/12/22 06:09:49;;;;;;;13.10;1.52;;;8.40;99.90;;;;;;4950110;28;20055;-77
2023/12/22 06:12:15;;;;;;;18.02;2.38;;;8.40;99.90;;;;;;4950633;28;20454;-77
2023/12/22 06:14:40;;;;;;;11.85;1.63;;;8.40;99.90;;;;;;4943972;28;20043;-77
2023/12/22 06:17:06;;;;;;;18.45;2.47;;;8.40;99.90;;;;;;4950110;28;20027;-77
2023/12/22 06:19:32;;;;;;;14.40;1.65;;;8.40;99.90;;;;;;4951289;28;20062;-77
2023/12/22 06:21:57;;;;;;;10.05;1.90;;;8.40;99.90;;;;;;4949694;28;20459;-77
2023/12/22 06:24:23;;;;;;;8.25;1.90;;;8.50;99.90;;;;;;4931086;28;20054;-77
2023/12/22 06:26:50;;;;;;;19.10;2.05;;;8.50;99.90;;;;;;4940116;28;20070;-77
2023/12/22 06:29:15;;;;;;;21.27;3.08;;;8.50;99.90;;;;;;4946772;28;20043;-78
2023/12/22 06:31:41;;;;;;;16.40;2.47;;;8.50;99.90;;;;;;4949402;28;20469;-77
2023/12/22 06:34:06;;;;;;;20.27;3.33;;;8.50;99.90;;;;;;4948937;28;20448;-76
2023/12/22 06:36:32;;;;;;;20.80;3.90;;;8.50;99.90;;;;;;4942516;28;20047;-75
2023/12/22 06:38:58;;;;;;;14.63;2.08;;;8.60;99.90;;;;;;4927321;28;20031;-76
2023/12/22 06:41:29;;;;;;;19.02;3.25;;;8.60;99.90;;;;;;4937428;28;20543;-76
2023/12/22 06:43:59;;;;;;;15.00;3.03;;;8.60;99.90;;;;;;4929421;28;20050;-73
2023/12/22 06:46:28;;;;;;;18.73;2.95;;;8.60;99.90;;;;;;4942814;28;20447;-76
2023/12/22 06:48:55;;;;;;;16.42;2.25;;;8.70;99.90;;;;;;4946639;28;20046;-75
2023/12/22 06:51:30;;;;;;;16.67;2.38;;;8.70;99.90;;;;;;4950676;28;20049;-77
2023/12/22 06:53:56;;;;;;;16.38;2.42;;;8.60;99.90;;;;;;4951897;28;20043;-76
2023/12/22 06:56:24;;;;;;;16.80;3.53;;;8.70;99.90;;;;;;4954716;28;20061;-76
2023/12/22 06:58:52;;;;;;;14.48;1.90;;;8.70;99.90;;;;;;4954804;28;20039;-77
2023/12/22 07:01:22;;;;;;;24.02;2.53;;;8.70;99.90;;;;;;4954109;28;20039;-77
2023/12/22 07:03:48;;;;;;;28.58;4.10;;;8.80;99.90;;;;;;4950473;28;20495;-77
2023/12/22 07:06:15;;;;;;;16.98;2.38;;;8.70;99.90;;;;;;4943915;28;20064;-75
2023/12/22 07:08:42;;;;;;;17.63;3.63;;;8.70;99.90;;;;;;4928401;28;20446;-77
2023/12/22 07:11:08;;;;;;;21.85;3.85;;;8.70;99.90;;;;;;4952551;28;20061;-77
2023/12/22 07:13:34;;;;;;;29.90;4.00;;;8.80;99.90;;;;;;4950807;28;20129;-77
2023/12/22 07:16:01;;;;;;;21.30;2.72;;;8.70;99.90;;;;;;4947231;28;20055;-77
2023/12/22 07:18:30;;;;;;;25.02;4.50;;;8.70;99.90;;;;;;4955485;28;20035;-77
2023/12/22 07:20:57;;;;;;;20.38;2.67;;;8.70;99.90;;;;;;4953051;28;20055;-76
2023/12/22 07:23:22;;;;;;;16.52;2.10;;;8.70;99.90;;;;;;4938201;28;20039;-78
2023/12/22 07:25:48;;;;;;;24.13;3.42;;;8.70;99.90;;;;;;4936140;28;20125;-76
2023/12/22 07:28:13;;;;;;;25.65;3.22;;;8.70;99.90;;;;;;4954009;28;20868;-77
2023/12/22 07:30:39;;;;;;;20.38;2.17;;;8.70;99.90;;;;;;4955038;28;20143;-76
2023/12/22 07:33:05;;;;;;;16.80;3.35;;;8.70;99.90;;;;;;4950213;28;20036;-76
2023/12/22 07:35:30;;;;;;;23.90;3.95;;;8.70;99.90;;;;;;4950355;28;20457;-76
2023/12/22 07:37:56;;;;;;;15.93;3.30;;;8.70;99.90;;;;;;4948951;28;20095;-77
2023/12/22 07:40:22;;;;;;;23.52;4.65;;;8.60;99.90;;;;;;4954979;28;20033;-75
2023/12/22 07:42:47;;;;;;;19.40;3.72;;;8.70;99.90;;;;;;4934916;28;20905;-76
2023/12/22 07:45:13;;;;;;;22.20;3.70;;;8.70;99.90;;;;;;4925350;29;20139;-76
2023/12/22 07:47:39;;;;;;;27.73;4.07;;;8.70;99.90;;;;;;4941372;28;20074;-75
2023/12/22 07:50:08;;;;;;;28.30;5.05;;;8.70;99.90;;;;;;4947972;28;20510;-76
2023/12/22 07:52:37;;;;;;;21.73;2.92;;;8.80;99.90;;;;;;4932780;28;20042;-76
2023/12/22 07:55:04;;;;;;;23.35;3.42;;;8.80;99.90;;;;;;4922148;28;20057;-76
2023/12/22 07:57:29;;;;;;;18.17;2.45;;;8.80;99.90;;;;;;4934526;28;20123;-76
2023/12/22 07:59:56;;;;;;;23.27;2.90;;;8.80;99.90;;;;;;4917405;28;20126;-76
2023/12/22 08:02:22;;;;;;;21.23;3.55;;;8.80;99.90;;;;;;4931424;28;20106;-78
2023/12/22 08:04:49;;;;;;;16.02;2.53;;;8.80;99.90;;;;;;4931276;28;20483;-76
2023/12/22 08:07:14;;;;;;;20.17;3.17;;;8.80;99.90;;;;;;4929144;28;20236;-74
2023/12/22 08:09:40;;;;;;;21.00;3.33;;;8.70;99.90;;;;;;4934332;28;20126;-77
2023/12/22 08:12:06;;;;;;;14.70;2.70;;;8.70;99.90;;;;;;4948881;28;20050;-77
2023/12/22 08:14:32;;;;;;;15.23;2.08;;;8.60;99.90;;;;;;4947830;28;20031;-77
2023/12/22 08:16:57;;;;;;;24.33;2.83;;;8.60;99.90;;;;;;4953755;28;20027;-76
2023/12/22 08:19:23;;;;;;;12.32;2.25;;;8.60;99.90;;;;;;4918760;28;20099;-76
2023/12/22 08:21:48;;;;;;;22.13;3.42;;;8.60;99.90;;;;;;4916059;28;20056;-76
2023/12/22 08:24:14;;;;;;;11.07;1.83;;;8.60;99.90;;;;;;4922359;28;20043;-78
2023/12/22 08:26:40;;;;;;;10.15;1.80;;;8.60;99.90;;;;;;4930144;28;20032;-75
2023/12/22 08:57:32;;;;;;;10.60;1.27;;;8.90;99.90;;;;;;4926626;28;20052;-74
2023/12/22 08:59:58;;;;;;;16.30;1.77;;;8.90;99.90;;;;;;4927653;28;20062;-74
2023/12/22 09:02:23;;;;;;;7.95;1.67;;;8.80;99.90;;;;;;4926515;28;20020;-74
2023/12/22 09:04:50;;;;;;;14.88;1.85;;;8.90;99.90;;;;;;4927393;28;20038;-73
2023/12/22 09:07:16;;;;;;;9.07;1.58;;;8.90;99.90;;;;;;4926674;28;20020;-74
2023/12/22 09:09:41;;;;;;;11.60;0.98;;;8.90;99.90;;;;;;4938103;28;20126;-75
2023/12/22 09:12:07;;;;;;;19.02;1.67;;;8.90;99.90;;;;;;4933397;28;20567;-75
2023/12/22 09:14:33;;;;;;;10.02;1.98;;;9.00;99.90;;;;;;4937064;28;20400;-76
2023/12/22 09:16:58;;;;;;;10.63;1.63;;;9.00;99.90;;;;;;4933087;28;20035;-75
2023/12/22 09:19:24;;;;;;;3.60;0.95;;;9.10;99.90;;;;;;4936334;28;20078;-79
2023/12/22 09:21:49;;;;;;;8.57;1.17;;;9.10;99.90;;;;;;4938818;28;20086;-76
2023/12/22 09:24:16;;;;;;;9.77;1.85;;;9.10;99.90;;;;;;4943972;28;20107;-76
2023/12/22 09:26:42;;;;;;;10.88;1.92;;;9.10;99.90;;;;;;4949050;28;20036;-76
2023/12/22 09:29:08;;;;;;;12.68;1.85;;;9.20;99.90;;;;;;4931203;28;20641;-74
2023/12/22 09:31:33;;;;;;;9.77;1.77;;;9.20;99.90;;;;;;4930107;28;20146;-75
2023/12/22 09:33:59;;;;;;;8.98;1.00;;;9.10;99.90;;;;;;4936536;28;20031;-76
2023/12/22 09:36:24;;;;;;;8.00;0.73;;;9.20;99.90;;;;;;4933613;28;20130;-76
2023/12/22 09:38:50;;;;;;;5.63;0.98;;;9.20;99.90;;;;;;4929052;28;20049;-74
2023/12/22 09:41:15;;;;;;;8.75;0.50;;;9.20;99.90;;;;;;4937646;29;20036;-75
2023/12/22 09:43:43;;;;;;;5.80;1.23;;;9.30;99.90;;;;;;4926995;28;20476;-76
2023/12/22 09:46:11;;;;;;;16.02;1.58;;;9.30;99.90;;;;;;4936810;28;20039;-77
2023/12/22 09:48:39;;;;;;;5.45;0.52;;;9.30;99.90;;;;;;4934734;28;20043;-74
2023/12/22 09:51:06;;;;;;;5.93;0.90;;;9.30;99.90;;;;;;4935269;28;20035;-75
2023/12/22 09:53:33;;;;;;;11.30;1.38;;;9.40;99.90;;;;;;4935508;28;20838;-75
2023/12/22 09:56:00;;;;;;;6.30;0.88;;;9.50;99.90;;;;;;4934499;28;20071;-75
2023/12/22 09:58:25;;;;;;;3.42;0.50;;;9.40;99.90;;;;;;4932746;28;20101;-75
2023/12/22 10:00:52;;;;;;;7.43;1.40;;;9.50;99.90;;;;;;4934781;28;20753;-75
2023/12/22 10:03:20;;;;;;;4.47;0.55;;;9.50;99.90;;;;;;4930223;28;20027;-77
2023/12/22 10:05:46;;;;;;;3.95;1.00;;;9.50;99.90;;;;;;4932518;28;20050;-76
2023/12/22 10:08:14;;;;;;;5.75;1.40;;;9.50;99.90;;;;;;4931693;29;20031;-76
2023/12/22 10:10:45;;;;;;;9.07;1.33;;;9.60;99.90;;;;;;4930104;28;20772;-74
2023/12/22 10:13:11;;;;;;;9.40;0.80;;;9.60;99.90;;;;;;4921135;29;21508;-75
2023/12/22 10:15:43;;;;;;;6.57;0.93;;;9.60;99.90;;;;;;4922977;29;20126;-75
2023/12/22 10:18:09;;;;;;;3.50;0.63;;;9.60;99.90;;;;;;4925885;28;20082;-75
2023/12/22 10:20:35;;;;;;;10.68;1.00;;;9.60;99.90;;;;;;4925942;28;20039;-75
2023/12/22 10:23:01;;;;;;;5.90;0.80;;;9.70;99.90;;;;;;4928305;28;20095;-75
2023/12/22 10:25:30;;;;;;;8.20;1.10;;;9.60;99.90;;;;;;4929422;28;20036;-75
2023/12/22 10:27:56;;;;;;;4.78;0.45;;;9.60;99.90;;;;;;4927511;28;20676;-76
2023/12/22 10:30:24;;;;;;;6.28;0.80;;;9.70;99.90;;;;;;4931468;28;20380;-75
2023/12/22 10:32:51;;;;;;;5.93;0.45;;;9.70;99.90;;;;;;4933641;28;20036;-76
2023/12/22 10:35:17;;;;;;;10.77;1.27;;;9.70;99.90;;;;;;4927325;28;20050;-76
2023/12/22 10:37:46;;;;;;;3.40;0.85;;;9.70;99.90;;;;;;4932938;28;20093;-75
2023/12/22 10:40:13;;;;;;;5.03;0.40;;;9.70;99.90;;;;;;4936710;29;20040;-76
2023/12/22 10:42:40;;;;;;;6.63;0.85;;;9.80;99.90;;;;;;4939328;28;20035;-76
2023/12/22 10:45:07;;;;;;;5.75;0.63;;;9.90;99.90;;;;;;4928145;28;20087;-76
2023/12/22 10:47:33;;;;;;;7.97;0.90;;;9.90;99.90;;;;;;4926788;28;20460;-75
2023/12/22 10:50:04;;;;;;;14.55;2.15;;;10.00;99.90;;;;;;4926912;28;20173;-75
2023/12/22 10:52:29;;;;;;;4.30;0.70;;;10.00;99.90;;;;;;4928539;28;20086;-75
2023/12/22 10:54:57;;;;;;;5.65;0.50;;;10.00;99.90;;;;;;4928862;28;20748;-75
2023/12/22 10:57:23;;;;;;;5.78;0.45;;;10.00;99.90;;;;;;4939869;28;20053;-77
2023/12/22 10:59:48;;;;;;;10.27;1.33;;;10.00;99.90;;;;;;4935693;28;20035;-75
2023/12/22 11:02:19;;;;;;;8.57;0.88;;;10.00;99.90;;;;;;4939670;28;20032;-75
2023/12/22 11:04:57;;;;;;;6.68;0.70;;;10.00;99.90;;;;;;4932687;28;20031;-75
2023/12/22 11:07:24;;;;;;;3.92;0.60;;;10.10;99.90;;;;;;4928246;28;20483;-75
2023/12/22 11:09:54;;;;;;;11.20;0.70;;;10.10;99.90;;;;;;4935943;28;20345;-75
2023/12/22 11:12:20;;;;;;;7.88;1.50;;;10.10;99.90;;;;;;4943050;28;20038;-74
2023/12/22 11:14:50;;;;;;;5.35;1.10;;;10.10;99.90;;;;;;4930091;29;20050;-75
2023/12/22 11:17:22;;;;;;;;;;;10.10;99.90;;;;;;4930474;29;20032;-75
2023/12/22 11:19:53;;;;;;;12.63;1.95;;;10.10;99.90;;;;;;4925275;28;20325;-76
2023/12/22 11:22:21;;;;;;;4.18;0.93;;;10.10;99.90;;;;;;4930970;28;20042;-76
2023/12/22 11:24:48;;;;;;;10.85;0.60;;;10.10;99.90;;;;;;4936583;29;20039;-74
2023/12/22 11:27:20;;;;;;;3.25;0.60;;;10.10;99.90;;;;;;4938972;28;20034;-76
2023/12/22 11:29:50;;;;;;;13.00;0.63;;;10.20;99.90;;;;;;4931962;28;20031;-75
2023/12/22 11:32:18;;;;;;;4.73;0.73;;;10.10;99.90;;;;;;4930811;28;20547;-75
2023/12/22 11:34:45;;;;;;;9.60;1.00;;;10.00;99.90;;;;;;4932133;28;20063;-74
2023/12/22 11:37:13;;;;;;;6.45;1.10;;;10.00;99.90;;;;;;4932714;28;20031;-76
2023/12/22 11:39:39;;;;;;;5.60;0.47;;;9.90;99.90;;;;;;4938359;28;20035;-75
2023/12/22 11:42:12;;;;;;;7.18;0.70;;;9.80;99.90;;;;;;4934473;28;20665;-75
2023/12/22 11:44:38;;;;;;;3.80;0.70;;;9.80;99.90;;;;;;4936000;28;20042;-75
2023/12/22 11:47:05;;;;;;;9.50;0.90;;;9.80;99.90;;;;;;4932698;28;20396;-75
2023/12/22 11:49:33;;;;;;;6.45;0.90;;;9.90;99.90;;;;;;4936079;28;20028;-75
2023/12/22 11:51:59;;;;;;;8.45;1.50;;;9.90;99.90;;;;;;4933476;28;20028;-78
2023/12/22 11:54:48;;;;;;;4.93;0.68;;;9.90;99.90;;;;;;4936308;28;20050;-78
2023/12/22 11:57:32;;;;;;;5.93;0.95;;;10.00;99.90;;;;;;4931294;28;20046;-76
2023/12/22 12:00:07;;;;;;;4.55;1.23;;;10.10;99.90;;;;;;4928837;28;20040;-77
2023/12/22 12:02:35;;;;;;;5.18;0.85;;;10.10;99.90;;;;;;4930010;28;20035;-76
2023/12/22 12:05:01;;;;;;;9.05;1.20;;;10.10;99.90;;;;;;4929142;28;20043;-74
2023/12/22 12:07:50;;;;;;;7.65;0.73;;;10.10;99.90;;;;;;4931803;28;20115;-75
2023/12/22 12:10:34;;;;;;;10.18;1.60;;;10.20;99.90;;;;;;4933781;28;20048;-74
2023/12/22 12:13:09;;;;;;;5.35;0.88;;;10.20;99.90;;;;;;4940313;28;20059;-75
2023/12/22 12:15:36;;;;;;;2.80;0.68;;;10.30;99.90;;;;;;4931990;28;20468;-76
2023/12/22 12:18:12;;;;;;;6.95;1.30;;;10.20;99.90;;;;;;4936659;28;20069;-75
2023/12/22 12:20:38;;;;;;;9.90;1.13;;;10.20;99.90;;;;;;4934706;28;20092;-75
2023/12/22 12:23:05;;;;;;;6.32;0.90;;;10.30;99.90;;;;;;4935279;28;20729;-75
2023/12/22 12:25:32;;;;;;;4.97;1.10;;;10.30;99.90;;;;;;4936245;28;20027;-75
2023/12/22 12:28:02;;;;;;;12.25;1.70;;;10.30;99.90;;;;;;4936949;28;20047;-75
2023/12/22 12:30:28;;;;;;;8.20;0.47;;;10.30;99.90;;;;;;4936939;28;20069;-75
2023/12/22 12:32:54;;;;;;;7.38;1.35;;;10.30;99.90;;;;;;4937666;28;20282;-75
2023/12/22 12:35:22;;;;;;;7.47;0.68;;;10.30;99.90;;;;;;4939130;28;20051;-75
2023/12/22 12:37:48;;;;;;;6.03;0.90;;;10.40;99.90;;;;;;4932924;28;20046;-77
2023/12/22 12:40:18;;;;;;;10.65;1.08;;;10.40;99.90;;;;;;4929097;29;20042;-75
2023/12/22 12:42:44;;;;;;;3.15;0.63;;;10.40;99.90;;;;;;4930408;28;20094;-74
2023/12/22 12:45:10;;;;;;;8.05;1.27;;;10.50;99.90;;;;;;4936812;28;20039;-75
2023/12/22 12:47:36;;;;;;;9.63;1.13;;;10.40;99.90;;;;;;4928758;28;20279;-75
2023/12/22 12:50:02;;;;;;;5.13;0.80;;;10.40;99.90;;;;;;4933317;28;20126;-75
2023/12/22 12:52:28;;;;;;;7.72;0.55;;;10.50;99.90;;;;;;4931517;28;20134;-76
2023/12/22 12:54:55;;;;;;;8.23;1.45;;;10.50;99.90;;;;;;4944787;28;20098;-75
2023/12/22 12:57:21;;;;;;;6.10;0.52;;;10.50;99.90;;;;;;4947245;28;20443;-76
2023/12/22 12:59:48;;;;;;;7.65;1.40;;;10.50;99.90;;;;;;4931310;28;20175;-74
2023/12/22 13:02:18;;;;;;;7.65;1.23;;;10.60;99.90;;;;;;4938809;28;20042;-74
2023/12/22 13:04:44;;;;;;;9.25;0.98;;;10.70;99.90;;;;;;4936489;28;20036;-75
2023/12/22 13:07:12;;;;;;;6.78;1.33;;;10.60;99.90;;;;;;4935224;28;20036;-75
2023/12/22 13:09:38;;;;;;;8.35;2.05;;;10.60;99.90;;;;;;4923893;28;20122;-74
2023/12/22 13:12:05;;;;;;;6.70;0.75;;;10.60;99.90;;;;;;4933719;28;20036;-75
2023/12/22 13:14:31;;;;;;;13.10;1.67;;;10.70;99.90;;;;;;4936311;28;20039;-75
2023/12/22 13:16:57;;;;;;;7.38;0.77;;;10.70;99.90;;;;;;4935448;28;20052;-74
2023/12/22 13:19:27;;;;;;;10.05;0.88;;;10.60;99.90;;;;;;4935081;28;20129;-76
2023/12/22 13:21:55;;;;;;;11.15;1.77;;;10.70;99.90;;;;;;4925435;28;20039;-76
2023/12/22 13:24:21;;;;;;;12.88;1.50;;;10.70;99.90;;;;;;4931237;28;20031;-74
2023/12/22 13:26:58;;;;;;;4.50;0.50;;;10.70;99.90;;;;;;4936913;28;20032;-75
2023/12/22 13:29:23;;;;;;;8.02;1.23;;;10.70;99.90;;;;;;4937933;28;20396;-75
2023/12/22 13:31:49;;;;;;;5.22;1.13;;;10.70;99.90;;;;;;4946932;28;20050;-75
2023/12/22 13:34:15;;;;;;;8.98;1.45;;;10.70;99.90;;;;;;4946465;28;20047;-75
2023/12/22 13:36:43;;;;;;;7.07;1.05;;;10.70;99.90;;;;;;4938246;28;20048;-75
2023/12/22 13:39:11;;;;;;;5.28;0.68;;;10.70;99.90;;;;;;4927563;28;20538;-75
2023/12/22 13:41:44;;;;;;;5.07;0.65;;;10.80;99.90;;;;;;4941588;28;20098;-75
2023/12/22 13:44:11;;;;;;;8.50;0.60;;;10.80;99.90;;;;;;4931098;28;20103;-74
2023/12/22 13:46:40;;;;;;;7.85;1.45;;;10.70;99.90;;;;;;4932052;28;20030;-77
2023/12/22 13:49:07;;;;;;;4.13;1.20;;;10.80;99.90;;;;;;4936336;28;20043;-74
2023/12/22 13:51:43;;;;;;;6.55;1.50;;;10.80;99.90;;;;;;4928779;29;20031;-74
2023/12/22 13:54:10;;;;;;;7.80;1.23;;;10.80;99.90;;;;;;4928494;28;20114;-74
2023/12/22 13:56:43;;;;;;;6.30;1.08;;;10.70;99.90;;;;;;4928068;28;20099;-76
2023/12/22 13:59:09;;;;;;;8.30;2.05;;;10.80;99.90;;;;;;4938849;28;20063;-74
2023/12/22 14:01:35;;;;;;;4.97;0.88;;;10.80;99.90;;;;;;4933895;28;20530;-74
2023/12/22 14:04:01;;;;;;;8.38;1.30;;;10.80;99.90;;;;;;4927750;28;20071;-74
2023/12/22 14:06:27;;;;;;;6.88;1.33;;;10.80;99.90;;;;;;4926064;28;20067;-75
2023/12/22 14:08:56;;;;;;;9.52;0.98;;;10.80;99.90;;;;;;4928265;28;20355;-75
2023/12/22 14:11:22;;;;;;;2.92;1.30;;;10.80;99.90;;;;;;4940949;28;20090;-74
2023/12/22 14:13:49;;;;;;;6.35;0.98;;;10.80;99.90;;;;;;4931139;28;20031;-76
2023/12/22 14:16:15;;;;;;;10.43;0.82;;;10.80;99.90;;;;;;4926818;29;20054;-75
2023/12/22 14:18:41;;;;;;;4.93;1.02;;;10.80;99.90;;;;;;4938165;28;20039;-74
2023/12/22 14:21:07;;;;;;;10.10;0.90;;;10.80;99.90;;;;;;4938348;28;20042;-75
2023/12/22 14:23:32;;;;;;;7.78;1.02;;;10.80;99.90;;;;;;4925199;28;20039;-74
2023/12/22 14:25:58;;;;;;;9.32;1.17;;;10.80;99.90;;;;;;4929880;28;20561;-74
2023/12/22 14:28:24;;;;;;;9.13;1.40;;;10.90;99.90;;;;;;4942795;28;20038;-75
2023/12/22 14:30:49;;;;;;;15.52;1.90;;;10.90;99.90;;;;;;4938646;28;20534;-76
2023/12/22 14:33:15;;;;;;;10.18;1.40;;;10.80;99.90;;;;;;4933688;28;20043;-75
2023/12/22 14:35:41;;;;;;;11.68;2.10;;;10.80;99.90;;;;;;4936755;28;20054;-75
2023/12/22 14:38:07;;;;;;;6.95;1.95;;;10.80;99.90;;;;;;4941293;28;20094;-74
2023/12/22 14:40:32;;;;;;;13.15;1.83;;;10.80;99.90;;;;;;4938919;28;20039;-74
2023/12/22 14:42:59;;;;;;;15.68;1.30;;;10.80;99.90;;;;;;4938142;28;20113;-75
2023/12/22 14:45:25;;;;;;;8.77;0.93;;;10.70;99.90;;;;;;4932151;28;20796;-73
2023/12/22 14:47:51;;;;;;;10.27;1.05;;;10.70;99.90;;;;;;4930273;28;20031;-74
2023/12/22 14:50:18;;;;;;;10.82;1.80;;;10.70;99.90;;;;;;4936434;28;20578;-74
2023/12/22 14:52:44;;;;;;;8.25;1.17;;;10.70;99.90;;;;;;4937231;28;20039;-73
2023/12/22 14:55:10;;;;;;;5.72;1.60;;;10.70;99.90;;;;;;4933151;28;20039;-74
2023/12/22 14:57:35;;;;;;;7.80;1.88;;;10.70;99.90;;;;;;4935085;28;20097;-74
2023/12/22 15:00:01;;;;;;;11.18;1.85;;;10.70;99.90;;;;;;4933659;28;20042;-74
2023/12/22 15:02:26;;;;;;;11.00;1.30;;;10.60;99.90;;;;;;4941348;28;20400;-75
2023/12/22 15:04:52;;;;;;;7.72;0.85;;;10.60;99.90;;;;;;4937852;28;20743;-75
2023/12/22 15:07:19;;;;;;;13.80;1.23;;;10.60;99.90;;;;;;4934613;28;20055;-74
2023/12/22 15:09:45;;;;;;;7.72;1.55;;;10.70;99.90;;;;;;4936934;28;20039;-74
2023/12/22 15:12:14;;;;;;;12.23;1.10;;;10.70;99.90;;;;;;4941126;28;20098;-74
2023/12/22 15:14:47;;;;;;;14.82;1.73;;;10.70;99.90;;;;;;4946900;28;20134;-76
2023/12/22 15:17:13;;;;;;;10.57;1.35;;;10.70;99.90;;;;;;4941063;28;20043;-75
2023/12/22 15:19:42;;;;;;;9.48;1.92;;;10.70;99.90;;;;;;4937583;28;20221;-74
2023/12/22 15:22:10;;;;;;;11.25;1.35;;;10.80;99.90;;;;;;4936258;28;20062;-74
2023/12/22 15:24:43;;;;;;;11.40;1.98;;;10.70;99.90;;;;;;4938730;28;20495;-74
2023/12/22 15:27:10;;;;;;;20.25;1.98;;;10.80;99.90;;;;;;4936770;28;20103;-75
2023/12/22 15:29:35;;;;;;;7.40;0.93;;;10.70;99.90;;;;;;4936397;28;20091;-75
2023/12/22 15:32:01;;;;;;;9.02;1.30;;;10.70;99.90;;;;;;4938469;28;20036;-74
2023/12/22 15:34:27;;;;;;;5.75;1.15;;;10.80;99.90;;;;;;4935203;28;20039;-74
2023/12/22 15:36:53;;;;;;;7.75;2.13;;;10.80;99.90;;;;;;4939222;28;20039;-74
2023/12/22 15:39:19;;;;;;;9.85;2.28;;;10.80;99.90;;;;;;4937266;28;20703;-78
2023/12/22 15:41:45;;;;;;;6.28;1.60;;;10.80;99.90;;;;;;4933628;28;20069;-74
2023/12/22 15:44:10;;;;;;;11.18;1.60;;;10.80;99.90;;;;;;4936943;28;20039;-74
2023/12/22 15:46:36;;;;;;;7.35;1.17;;;10.80;99.90;;;;;;4936851;28;20063;-74
2023/12/22 15:49:01;;;;;;;8.70;1.00;;;10.80;99.90;;;;;;4942324;28;20043;-73
2023/12/22 15:51:27;;;;;;;5.07;1.23;;;10.80;99.90;;;;;;4946026;28;20032;-74
2023/12/22 15:53:52;;;;;;;6.85;1.40;;;10.90;99.90;;;;;;4938666;28;20063;-76
2023/12/22 15:56:18;;;;;;;7.55;1.15;;;10.80;99.90;;;;;;4930407;29;20499;-75
2023/12/22 15:58:44;;;;;;;10.95;1.67;;;10.80;99.90;;;;;;4936299;28;20819;-75
2023/12/22 16:01:14;;;;;;;8.77;1.33;;;10.90;99.90;;;;;;4933526;28;20452;-75
2023/12/22 16:03:40;;;;;;;8.07;0.77;;;10.90;99.90;;;;;;4944323;28;20098;-75
2023/12/22 16:06:06;;;;;;;6.90;1.83;;;10.90;99.90;;;;;;4943314;28;20124;-76
2023/12/22 16:08:35;;;;;;;6.95;0.90;;;10.90;99.90;;;;;;4933942;28;20046;-74
2023/12/22 16:11:05;;;;;;;8.45;1.15;;;10.90;99.90;;;;;;4935671;28;20043;-74
2023/12/22 16:13:33;;;;;;;11.15;1.25;;;10.80;99.90;;;;;;4936763;28;20070;-74
2023/12/22 16:15:59;;;;;;;9.90;1.23;;;10.90;99.90;;;;;;4936836;28;20402;-76
2023/12/22 16:18:25;;;;;;;4.30;1.00;;;10.90;99.90;;;;;;4939431;28;20651;-75
2023/12/22 16:20:51;;;;;;;13.43;1.75;;;10.90;99.90;;;;;;4935050;28;20044;-75
2023/12/22 16:23:21;;;;;;;13.13;2.35;;;10.80;99.90;;;;;;4939955;28;20082;-73
2023/12/22 16:25:51;;;;;;;6.13;1.27;;;10.80;99.90;;;;;;4938542;28;20044;-74
2023/12/22 16:28:20;;;;;;;10.02;1.27;;;10.90;99.90;;;;;;4942371;28;20046;-75
2023/12/22 16:30:46;;;;;;;8.55;1.73;;;10.80;99.90;;;;;;4939592;28;20470;-76
2023/12/22 16:33:14;;;;;;;8.45;1.75;;;10.80;99.90;;;;;;4938696;28;20836;-75
2023/12/22 16:35:40;;;;;;;13.82;0.93;;;10.80;99.90;;;;;;4941178;28;20956;-75
2023/12/22 16:38:06;;;;;;;11.00;1.40;;;10.70;99.90;;;;;;4940715;28;20035;-76
2023/12/22 16:40:31;;;;;;;9.23;1.40;;;10.60;99.90;;;;;;4938828;28;20051;-75